Time;durP1;ratioP1;P1;durP2;ratioP2;P2;SDS_P1;SDS_P2;PMS_P1;PMS_P2;Temp;Humidity;BMP_temperature;BMP_pressure;BME280_temperature;BME280_humidity;BME280_pressure;Samples;Min_cycle;Max_cycle;Signal;HPM_P1;HPM_P2
2022/04/22 00:00:09;;;;;;;13.48;6.82;;;11.40;99.90;;;;;;5094892;28;20048;-68
2022/04/22 00:02:38;;;;;;;12.40;7.35;;;11.40;99.90;;;;;;5095277;28;20036;-67
2022/04/22 00:05:03;;;;;;;14.00;6.80;;;11.30;99.90;;;;;;5113507;28;20115;-68
2022/04/22 00:07:29;;;;;;;14.95;8.05;;;11.30;99.90;;;;;;5095099;28;20188;-68
2022/04/22 00:09:56;;;;;;;13.90;7.20;;;11.30;99.90;;;;;;5112894;28;20036;-68
2022/04/22 00:12:21;;;;;;;14.32;7.05;;;11.20;99.90;;;;;;5113157;28;20476;-67
2022/04/22 00:14:48;;;;;;;11.25;7.07;;;11.20;99.90;;;;;;5113167;28;20028;-68
2022/04/22 00:17:13;;;;;;;13.23;7.13;;;11.10;99.90;;;;;;5113122;28;20109;-68
2022/04/22 00:19:39;;;;;;;13.18;7.72;;;11.10;99.90;;;;;;5094563;28;20484;-68
2022/04/22 00:22:04;;;;;;;11.18;7.30;;;11.10;99.90;;;;;;5113043;28;20036;-68
2022/04/22 00:24:30;;;;;;;15.48;8.00;;;11.10;99.90;;;;;;5112843;28;20037;-68
2022/04/22 00:26:55;;;;;;;11.93;7.85;;;11.10;99.90;;;;;;5113153;28;20047;-68
2022/04/22 00:29:21;;;;;;;14.57;6.90;;;11.10;99.90;;;;;;5112901;28;20032;-68
2022/04/22 00:31:47;;;;;;;13.73;7.88;;;11.10;99.90;;;;;;5112822;28;20085;-69
2022/04/22 00:34:12;;;;;;;18.17;8.02;;;11.10;99.90;;;;;;5112733;28;20500;-69
2022/04/22 00:36:38;;;;;;;14.25;8.02;;;11.00;99.90;;;;;;5112692;28;20059;-68
2022/04/22 00:39:03;;;;;;;13.02;7.35;;;11.00;99.90;;;;;;5112330;28;20032;-68
2022/04/22 00:41:29;;;;;;;18.40;8.35;;;11.00;99.90;;;;;;5112566;28;20050;-69
2022/04/22 00:43:55;;;;;;;14.82;7.55;;;11.00;99.90;;;;;;5112407;28;20031;-69
2022/04/22 00:46:21;;;;;;;11.73;7.10;;;11.00;99.90;;;;;;5112745;28;20084;-68
2022/04/22 00:48:47;;;;;;;15.95;8.43;;;10.90;99.90;;;;;;5112464;28;20396;-67
2022/04/22 00:51:13;;;;;;;18.17;7.80;;;10.90;99.90;;;;;;5112641;28;20039;-68
2022/04/22 00:53:44;;;;;;;14.23;7.85;;;10.90;99.90;;;;;;5113452;28;20056;-68
2022/04/22 00:56:11;;;;;;;16.90;7.72;;;10.80;99.90;;;;;;5096959;28;20043;-68
2022/04/22 00:58:39;;;;;;;16.23;8.80;;;10.80;99.90;;;;;;5115048;28;20035;-69
2022/04/22 01:01:05;;;;;;;15.68;8.93;;;10.80;99.90;;;;;;5115543;28;20644;-69
2022/04/22 01:03:31;;;;;;;11.98;7.57;;;10.70;99.90;;;;;;5095927;28;20035;-69
2022/04/22 01:11:31;;;;;;;25.95;8.00;;;10.60;99.90;;;;;;5112027;28;20448;-68
2022/04/22 01:13:59;;;;;;;20.42;8.88;;;10.60;99.90;;;;;;5112031;28;20036;-68
2022/04/22 01:16:25;;;;;;;17.13;10.10;;;10.60;99.90;;;;;;5111992;28;20039;-68
2022/04/22 01:18:51;;;;;;;19.52;9.70;;;10.60;99.90;;;;;;5111602;28;20067;-68
2022/04/22 01:21:18;;;;;;;15.63;8.90;;;10.60;99.90;;;;;;5112051;28;20106;-68
2022/04/22 01:23:44;;;;;;;20.65;8.98;;;10.60;99.90;;;;;;5111976;28;20380;-68
2022/04/22 01:26:10;;;;;;;18.95;10.05;;;10.60;99.90;;;;;;5111956;28;20064;-68
2022/04/22 01:28:36;;;;;;;21.45;10.00;;;10.50;99.90;;;;;;5111549;28;20426;-69
2022/04/22 01:31:02;;;;;;;19.42;9.15;;;10.50;99.90;;;;;;5111754;28;20127;-68
2022/04/22 01:33:28;;;;;;;22.48;10.88;;;10.40;99.90;;;;;;5093296;28;20111;-69
2022/04/22 01:35:53;;;;;;;17.27;9.30;;;10.40;99.90;;;;;;5111797;28;20076;-68
2022/04/22 01:38:19;;;;;;;18.33;9.80;;;10.40;99.90;;;;;;5111429;28;20031;-68
2022/04/22 01:40:44;;;;;;;19.55;10.88;;;10.30;99.90;;;;;;5111439;28;20043;-69
2022/04/22 01:43:10;;;;;;;24.40;10.35;;;10.30;99.90;;;;;;5111495;28;20042;-68
2022/04/22 01:45:35;;;;;;;24.02;11.70;;;10.30;99.90;;;;;;5111399;28;20453;-68
2022/04/22 01:48:01;;;;;;;21.10;10.32;;;10.20;99.90;;;;;;5111318;28;20035;-69
2022/04/22 01:50:27;;;;;;;21.33;11.32;;;10.20;99.90;;;;;;5110689;28;20047;-68
2022/04/22 01:52:53;;;;;;;22.38;11.30;;;10.30;99.90;;;;;;5111413;28;20511;-69
2022/04/22 01:55:19;;;;;;;23.70;11.73;;;10.20;99.90;;;;;;5111387;28;20479;-69
2022/04/22 01:57:44;;;;;;;18.48;11.35;;;10.20;99.90;;;;;;5111133;28;20532;-69
2022/04/22 02:00:11;;;;;;;21.25;11.70;;;10.20;99.90;;;;;;5092747;28;20118;-68
2022/04/22 02:02:37;;;;;;;23.52;11.77;;;10.10;99.90;;;;;;5093148;28;20431;-69
2022/04/22 02:05:03;;;;;;;23.88;11.88;;;10.20;99.90;;;;;;5111284;28;20043;-68
2022/04/22 02:07:29;;;;;;;22.33;10.93;;;10.10;99.90;;;;;;5111541;28;20104;-69
2022/04/22 02:09:55;;;;;;;24.13;11.60;;;10.20;99.90;;;;;;5112666;28;20039;-69
2022/04/22 02:12:20;;;;;;;20.48;11.85;;;10.20;99.90;;;;;;5113077;28;20452;-69
2022/04/22 02:14:46;;;;;;;25.65;11.30;;;10.10;99.90;;;;;;5113027;28;20080;-69
2022/04/22 02:17:12;;;;;;;27.63;12.32;;;10.10;99.90;;;;;;5112103;28;20035;-68
2022/04/22 02:19:37;;;;;;;26.98;11.55;;;10.10;99.90;;;;;;5111043;28;20051;-69
2022/04/22 02:22:03;;;;;;;22.90;10.80;;;10.00;99.90;;;;;;5111199;28;20040;-69
2022/04/22 02:24:28;;;;;;;22.40;11.93;;;10.00;99.90;;;;;;5111101;28;20038;-68
2022/04/22 02:29:38;;;;;;;26.75;11.55;;;10.00;99.90;;;;;;5110615;28;20043;-68
2022/04/22 02:32:04;;;;;;;21.65;10.35;;;9.90;99.90;;;;;;5111262;28;20032;-69
2022/04/22 02:34:31;;;;;;;23.25;11.13;;;9.90;99.90;;;;;;5111052;28;20047;-68
2022/04/22 02:36:56;;;;;;;17.75;10.60;;;9.90;99.90;;;;;;5110975;28;20043;-69
2022/04/22 02:39:22;;;;;;;24.30;10.60;;;9.90;99.90;;;;;;5110772;28;20035;-69
2022/04/22 02:47:16;;;;;;;19.95;9.05;;;9.90;99.90;;;;;;5110707;28;20051;-68
2022/04/22 02:49:44;;;;;;;23.88;9.65;;;9.80;99.90;;;;;;5110556;28;20036;-69
2022/04/22 02:52:14;;;;;;;19.10;9.60;;;9.80;99.90;;;;;;5110827;28;20031;-69
2022/04/22 02:54:40;;;;;;;20.10;10.10;;;9.70;99.90;;;;;;5110636;28;20040;-69
2022/04/22 02:57:06;;;;;;;15.60;9.32;;;9.70;99.90;;;;;;5110892;28;20049;-68
2022/04/22 02:59:32;;;;;;;20.08;9.85;;;9.60;99.90;;;;;;5092151;28;20051;-69
2022/04/22 03:01:59;;;;;;;22.67;9.65;;;9.60;99.90;;;;;;5113097;28;20048;-69
2022/04/22 03:04:26;;;;;;;20.13;9.50;;;9.50;99.90;;;;;;5114672;28;20115;-69
2022/04/22 03:06:51;;;;;;;20.45;10.48;;;9.50;99.90;;;;;;5114474;28;20047;-68
2022/04/22 03:09:17;;;;;;;24.63;10.73;;;9.50;99.90;;;;;;5114066;28;20048;-68
2022/04/22 03:11:43;;;;;;;18.80;9.63;;;9.50;99.90;;;;;;5114366;28;20040;-69
2022/04/22 03:14:08;;;;;;;23.05;10.90;;;9.40;99.90;;;;;;5114411;28;20048;-68
2022/04/22 03:16:35;;;;;;;20.40;9.75;;;9.30;99.90;;;;;;5096112;28;20046;-68
2022/04/22 03:19:01;;;;;;;20.38;10.15;;;9.30;99.90;;;;;;5113962;28;20039;-68
2022/04/22 03:21:27;;;;;;;19.73;10.18;;;9.30;99.90;;;;;;5114253;28;20071;-69
2022/04/22 03:23:53;;;;;;;23.30;10.55;;;9.30;99.90;;;;;;5114113;28;20094;-69
2022/04/22 03:26:18;;;;;;;21.20;9.60;;;9.30;99.90;;;;;;5113890;28;20088;-68
2022/04/22 03:28:44;;;;;;;17.23;10.20;;;9.30;99.90;;;;;;5113912;28;20595;-68
2022/04/22 03:31:10;;;;;;;21.55;9.43;;;9.20;99.90;;;;;;5114111;28;20078;-68
2022/04/22 03:33:36;;;;;;;17.92;9.55;;;9.20;99.90;;;;;;5113946;28;20055;-68
2022/04/22 03:36:02;;;;;;;17.88;9.07;;;9.20;99.90;;;;;;5113908;28;20112;-68
2022/04/22 03:38:30;;;;;;;16.80;8.90;;;9.10;99.90;;;;;;5113964;28;20067;-68
2022/04/22 03:40:56;;;;;;;20.10;9.90;;;9.00;99.90;;;;;;5113904;28;20538;-68
2022/04/22 03:43:23;;;;;;;23.73;9.07;;;9.00;99.90;;;;;;5095576;28;20036;-69
2022/04/22 03:45:49;;;;;;;16.65;9.25;;;9.10;99.90;;;;;;5113961;28;20063;-69
2022/04/22 03:48:18;;;;;;;17.05;9.77;;;9.00;99.90;;;;;;5113805;28;20043;-69
2022/04/22 03:50:47;;;;;;;15.52;8.45;;;9.00;99.90;;;;;;5113330;28;20088;-69
2022/04/22 03:53:13;;;;;;;15.35;8.50;;;9.00;99.90;;;;;;5113871;28;20043;-68
2022/04/22 03:55:40;;;;;;;18.17;8.52;;;8.90;99.90;;;;;;5095485;28;20031;-68
2022/04/22 03:58:12;;;;;;;17.48;8.27;;;8.90;99.90;;;;;;5113619;28;20035;-69
2022/04/22 04:00:48;;;;;;;16.42;8.05;;;8.80;99.90;;;;;;5113153;28;20122;-69
2022/04/22 04:03:19;;;;;;;18.98;8.30;;;8.80;99.90;;;;;;5112371;28;20403;-68
2022/04/22 04:05:50;;;;;;;13.63;8.05;;;8.80;99.90;;;;;;5113550;28;20039;-68
2022/04/22 04:08:17;;;;;;;13.50;8.20;;;8.80;99.90;;;;;;5113472;28;20043;-68
2022/04/22 04:16:11;;;;;;;16.40;7.75;;;8.70;99.90;;;;;;5092717;28;20048;-68
2022/04/22 04:18:38;;;;;;;13.10;7.50;;;8.80;99.90;;;;;;5110402;28;20166;-69
2022/04/22 04:23:50;;;;;;;13.48;7.07;;;8.70;99.90;;;;;;5112447;28;20043;-68
2022/04/22 04:26:18;;;;;;;16.13;7.25;;;8.70;99.90;;;;;;5112369;28;20164;-68
2022/04/22 04:28:47;;;;;;;12.48;6.80;;;8.70;99.90;;;;;;5111518;28;20094;-68
2022/04/22 04:31:13;;;;;;;12.52;6.72;;;8.70;99.90;;;;;;5094058;28;20043;-68
2022/04/22 04:33:39;;;;;;;20.23;6.93;;;8.70;99.90;;;;;;5112848;28;20100;-69
2022/04/22 04:36:05;;;;;;;11.63;7.10;;;8.60;99.90;;;;;;5094721;28;20387;-69
2022/04/22 04:38:32;;;;;;;12.07;6.88;;;8.70;99.90;;;;;;5112379;28;20035;-68
2022/04/22 04:40:59;;;;;;;14.32;7.13;;;8.70;99.90;;;;;;5112939;28;20072;-67
2022/04/22 04:43:24;;;;;;;11.43;6.38;;;8.70;99.90;;;;;;5112509;28;20564;-68
2022/04/22 04:45:50;;;;;;;15.40;7.07;;;8.70;99.90;;;;;;5112591;28;20043;-68
2022/04/22 04:48:19;;;;;;;13.45;6.22;;;8.60;99.90;;;;;;5112588;28;20570;-68
2022/04/22 04:50:46;;;;;;;13.90;6.32;;;8.70;99.90;;;;;;5112148;28;20073;-69
2022/04/22 04:53:12;;;;;;;12.60;5.85;;;8.70;99.90;;;;;;5112380;28;20059;-68
2022/04/22 04:55:38;;;;;;;12.50;6.65;;;8.60;99.90;;;;;;5112362;28;20035;-69
2022/04/22 04:58:04;;;;;;;11.40;6.47;;;8.70;99.90;;;;;;5112387;28;20084;-68
2022/04/22 05:00:30;;;;;;;13.82;6.05;;;8.70;99.90;;;;;;5111843;28;20035;-68
2022/04/22 05:02:56;;;;;;;11.05;6.00;;;8.70;99.90;;;;;;5111896;28;20116;-68
2022/04/22 05:05:22;;;;;;;11.00;6.07;;;8.60;99.90;;;;;;5112190;28;20404;-68
2022/04/22 05:07:57;;;;;;;13.35;6.28;;;8.70;99.90;;;;;;5112194;28;20043;-68
2022/04/22 05:10:24;;;;;;;12.10;5.95;;;8.80;99.90;;;;;;5111986;28;20052;-68
2022/04/22 05:12:50;;;;;;;10.85;5.95;;;8.80;99.90;;;;;;5112207;28;20031;-69
2022/04/22 05:15:17;;;;;;;12.75;5.60;;;8.90;99.90;;;;;;5112039;28;20040;-68
2022/04/22 05:17:44;;;;;;;10.88;5.30;;;9.00;99.90;;;;;;5112014;28;20071;-68
2022/04/22 05:20:11;;;;;;;10.73;5.43;;;8.90;99.90;;;;;;5093391;28;20043;-68
2022/04/22 05:22:37;;;;;;;8.35;5.75;;;9.00;99.90;;;;;;5111800;28;20059;-68
2022/04/22 05:25:07;;;;;;;9.48;5.85;;;8.90;99.90;;;;;;5111166;28;20074;-68
2022/04/22 05:27:34;;;;;;;10.77;5.00;;;8.90;99.90;;;;;;5111872;28;20047;-68
2022/04/22 05:32:47;;;;;;;13.43;5.47;;;8.90;99.90;;;;;;5093354;28;20542;-68
2022/04/22 05:35:14;;;;;;;11.35;6.00;;;8.90;99.90;;;;;;5111882;28;20469;-68
2022/04/22 05:37:54;;;;;;;8.85;5.32;;;8.90;99.90;;;;;;5111810;28;20107;-68
2022/04/22 05:40:21;;;;;;;8.38;4.78;;;9.00;99.90;;;;;;5111528;28;20035;-68
2022/04/22 05:42:48;;;;;;;8.98;5.43;;;8.90;99.90;;;;;;5111615;28;20072;-68
2022/04/22 05:45:15;;;;;;;15.27;5.80;;;8.90;99.90;;;;;;5111457;28;20071;-68
2022/04/22 05:47:41;;;;;;;10.43;5.32;;;9.00;99.90;;;;;;5111730;28;20039;-68
2022/04/22 05:50:10;;;;;;;8.93;5.03;;;9.00;99.90;;;;;;5092789;28;20051;-68
2022/04/22 05:52:37;;;;;;;7.78;5.22;;;9.20;99.90;;;;;;5111413;28;20122;-68
2022/04/22 05:55:07;;;;;;;11.07;5.10;;;9.40;99.90;;;;;;5093247;28;20039;-68
2022/04/22 05:57:33;;;;;;;10.05;5.20;;;9.50;99.90;;;;;;5111355;28;20035;-69
2022/04/22 06:00:00;;;;;;;8.52;5.30;;;9.60;99.90;;;;;;5110811;28;20104;-69
2022/04/22 06:02:26;;;;;;;10.52;4.65;;;9.60;99.90;;;;;;5111422;28;20040;-68
2022/04/22 06:04:53;;;;;;;9.77;5.05;;;9.60;99.90;;;;;;5092514;28;20040;-68
2022/04/22 06:07:19;;;;;;;8.50;5.15;;;9.70;99.90;;;;;;5090831;28;20557;-68
2022/04/22 06:12:29;;;;;;;7.72;5.60;;;9.70;99.90;;;;;;5090785;28;20080;-68
2022/04/22 06:14:54;;;;;;;7.93;4.80;;;9.80;99.90;;;;;;5090923;28;20067;-68
2022/04/22 06:17:20;;;;;;;15.18;5.13;;;9.90;99.90;;;;;;5090923;28;20036;-68
2022/04/22 06:19:46;;;;;;;12.02;4.72;;;9.90;99.90;;;;;;5090541;28;20040;-68
2022/04/22 06:22:11;;;;;;;9.10;4.72;;;10.00;99.90;;;;;;5090684;28;20065;-68
2022/04/22 06:24:37;;;;;;;8.27;5.35;;;9.90;99.90;;;;;;5090699;28;20032;-69
2022/04/22 06:27:02;;;;;;;9.45;4.80;;;10.10;99.90;;;;;;5091095;28;20032;-68
2022/04/22 06:29:28;;;;;;;8.43;4.47;;;10.00;99.90;;;;;;5090669;28;20527;-68
2022/04/22 06:31:54;;;;;;;8.55;5.03;;;10.10;99.90;;;;;;5090713;28;20071;-69
2022/04/22 06:34:20;;;;;;;10.77;5.10;;;10.20;99.90;;;;;;5090703;28;20055;-68
2022/04/22 06:36:46;;;;;;;7.20;4.68;;;10.20;99.90;;;;;;5076222;28;20051;-68
2022/04/22 06:39:13;;;;;;;6.82;4.90;;;10.20;99.90;;;;;;5094495;28;20039;-67
2022/04/22 06:47:08;;;;;;;7.18;4.80;;;10.20;99.90;;;;;;5094620;28;20051;-68
2022/04/22 06:49:34;;;;;;;7.70;4.82;;;10.30;99.90;;;;;;5094215;28;20044;-68
2022/04/22 06:52:01;;;;;;;7.72;5.00;;;10.40;99.90;;;;;;5094349;28;20438;-67
2022/04/22 06:54:27;;;;;;;12.23;4.55;;;10.30;99.90;;;;;;5094503;28;20039;-68
2022/04/22 06:56:53;;;;;;;7.13;4.88;;;10.30;99.90;;;;;;5094513;28;20040;-68
2022/04/22 06:59:21;;;;;;;11.82;4.78;;;10.50;99.90;;;;;;5093951;28;20081;-68
2022/04/22 07:01:47;;;;;;;14.63;4.85;;;10.40;99.90;;;;;;5076118;28;20484;-68
2022/04/22 07:04:14;;;;;;;11.07;5.18;;;10.40;99.90;;;;;;5094169;28;20047;-68
2022/04/22 07:06:42;;;;;;;11.18;4.95;;;10.50;99.90;;;;;;5094222;28;20073;-68
2022/04/22 07:09:10;;;;;;;11.45;4.78;;;10.50;99.90;;;;;;5093933;28;20040;-67
2022/04/22 07:11:38;;;;;;;9.85;4.82;;;10.60;99.90;;;;;;5075830;28;20119;-67
2022/04/22 07:14:04;;;;;;;8.02;4.82;;;10.80;99.90;;;;;;5075713;28;20161;-68
2022/04/22 07:16:30;;;;;;;13.70;5.40;;;10.80;99.90;;;;;;5094028;28;20110;-68
2022/04/22 07:18:57;;;;;;;10.68;5.80;;;10.80;99.90;;;;;;5093617;28;20554;-72
2022/04/22 07:21:23;;;;;;;11.60;4.65;;;10.80;99.90;;;;;;5076004;28;20036;-73
2022/04/22 07:23:49;;;;;;;10.30;5.47;;;10.80;99.90;;;;;;5075904;28;20122;-73
2022/04/22 07:26:17;;;;;;;8.70;4.93;;;10.80;99.90;;;;;;5075621;28;20134;-73
2022/04/22 07:28:47;;;;;;;11.07;5.25;;;11.00;99.90;;;;;;5075251;28;20044;-73
2022/04/22 07:31:18;;;;;;;6.20;4.75;;;11.00;99.90;;;;;;5075462;28;20135;-72
2022/04/22 07:33:45;;;;;;;10.00;4.80;;;10.90;99.90;;;;;;5075371;28;20040;-73
2022/04/22 07:36:10;;;;;;;12.57;4.82;;;11.10;99.90;;;;;;5075668;28;20469;-72
2022/04/22 07:38:36;;;;;;;8.50;5.15;;;11.10;99.90;;;;;;5093449;28;20040;-72
2022/04/22 07:41:02;;;;;;;8.38;5.28;;;11.20;99.90;;;;;;5075313;28;20072;-70
2022/04/22 07:48:56;;;;;;;10.65;4.32;;;11.20;99.90;;;;;;5075260;28;20044;-73
2022/04/22 07:51:25;;;;;;;9.45;4.10;;;11.30;99.90;;;;;;5077575;28;20070;-73
2022/04/22 07:53:51;;;;;;;7.45;4.75;;;11.50;99.90;;;;;;5092686;28;20569;-74
2022/04/22 07:56:17;;;;;;;11.48;4.80;;;11.60;99.90;;;;;;5094861;28;20039;-74
2022/04/22 07:58:43;;;;;;;7.30;4.45;;;11.60;99.90;;;;;;5095055;28;20038;-74
2022/04/22 08:01:09;;;;;;;12.10;3.97;;;11.70;99.90;;;;;;5095475;28;20043;-75
2022/04/22 08:03:36;;;;;;;9.23;4.50;;;11.80;99.90;;;;;;5095219;28;20108;-74
2022/04/22 08:06:02;;;;;;;9.63;4.55;;;11.70;99.90;;;;;;5095215;28;20036;-75
2022/04/22 08:08:30;;;;;;;6.57;3.97;;;11.90;99.90;;;;;;5095192;28;20491;-75
2022/04/22 08:10:56;;;;;;;6.68;4.03;;;12.00;99.90;;;;;;5095017;28;20047;-77
2022/04/22 08:13:24;;;;;;;10.57;4.90;;;12.00;99.90;;;;;;5095064;28;20079;-76
2022/04/22 08:15:49;;;;;;;8.98;4.10;;;12.10;99.90;;;;;;5095093;28;20035;-74
2022/04/22 08:18:15;;;;;;;4.75;3.75;;;12.30;99.90;;;;;;5095017;28;20118;-74
2022/04/22 08:20:40;;;;;;;11.50;4.20;;;12.30;99.90;;;;;;5095075;28;20040;-74
2022/04/22 08:23:06;;;;;;;6.18;3.70;;;12.20;99.90;;;;;;5095175;28;20043;-74
2022/04/22 08:25:32;;;;;;;8.43;4.00;;;12.10;99.90;;;;;;5095408;28;20050;-74
2022/04/22 08:27:57;;;;;;;5.43;3.10;;;12.30;99.90;;;;;;5113701;28;20408;-71
2022/04/22 08:30:23;;;;;;;7.93;3.45;;;12.40;99.90;;;;;;5096789;28;20514;-73
2022/04/22 08:32:48;;;;;;;7.13;3.60;;;12.40;99.90;;;;;;5117433;28;20040;-71
2022/04/22 08:35:14;;;;;;;6.32;3.85;;;12.40;99.90;;;;;;5100406;28;20064;-70
2022/04/22 08:37:44;;;;;;;4.57;3.10;;;12.60;99.90;;;;;;5117435;28;20036;-70
2022/04/22 08:40:09;;;;;;;5.80;2.88;;;12.70;99.90;;;;;;5116098;28;20027;-70
2022/04/22 08:42:37;;;;;;;4.13;2.58;;;13.40;99.90;;;;;;5116244;28;20168;-71
2022/04/22 08:45:03;;;;;;;7.03;3.50;;;13.30;99.90;;;;;;5113006;28;20027;-76
2022/04/22 08:50:16;;;;;;;6.57;3.47;;;13.00;99.90;;;;;;5112565;28;20451;-74
2022/04/22 08:52:43;;;;;;;4.72;3.20;;;13.20;99.90;;;;;;5094672;28;20096;-71
2022/04/22 08:55:10;;;;;;;6.47;2.80;;;13.10;99.80;;;;;;5112891;28;20031;-74
2022/04/22 08:57:35;;;;;;;3.08;2.63;;;13.10;98.40;;;;;;5094102;28;20131;-74
2022/04/22 09:00:05;;;;;;;6.50;3.17;;;13.10;99.90;;;;;;5094094;28;20122;-75
2022/04/22 09:02:30;;;;;;;3.42;2.65;;;13.10;98.80;;;;;;5094448;28;20039;-74
2022/04/22 09:04:56;;;;;;;6.35;2.95;;;13.30;99.90;;;;;;5112627;28;20046;-74
2022/04/22 09:07:28;;;;;;;4.43;3.00;;;13.20;98.20;;;;;;5094315;28;20031;-74
2022/04/22 09:09:54;;;;;;;5.35;2.97;;;13.30;97.70;;;;;;5093817;28;20040;-75
2022/04/22 09:12:26;;;;;;;6.07;3.03;;;13.40;98.00;;;;;;5112345;28;20061;-74
2022/04/22 09:14:56;;;;;;;19.20;4.07;;;13.60;97.70;;;;;;5094187;28;20047;-75
2022/04/22 09:17:26;;;;;;;10.88;3.50;;;13.70;98.20;;;;;;5111806;28;20035;-74
2022/04/22 09:19:53;;;;;;;5.55;2.95;;;13.70;96.80;;;;;;5093668;28;20032;-74
2022/04/22 09:22:23;;;;;;;5.15;3.17;;;13.70;98.30;;;;;;5112302;28;20054;-74
2022/04/22 09:24:57;;;;;;;4.25;2.92;;;13.80;98.00;;;;;;5088201;28;20039;-74
2022/04/22 09:27:42;;;;;;;9.18;2.90;;;13.80;93.90;;;;;;5087649;28;20040;-74
2022/04/22 09:30:10;;;;;;;7.78;2.75;;;13.80;94.30;;;;;;5084617;28;20040;-73
2022/04/22 09:32:39;;;;;;;19.50;3.63;;;13.90;93.80;;;;;;5077624;28;20044;-74
2022/04/22 09:35:20;;;;;;;8.43;3.50;;;13.90;93.10;;;;;;5094327;28;20047;-74
2022/04/22 09:43:42;;;;;;;5.90;2.78;;;14.10;92.40;;;;;;5073212;28;20044;-73
2022/04/22 09:46:32;;;;;;;8.50;3.47;;;14.30;92.00;;;;;;5073327;28;20043;-73
2022/04/22 09:48:59;;;;;;;8.68;3.13;;;14.30;91.70;;;;;;5056665;28;20055;-73
2022/04/22 09:51:27;;;;;;;5.13;3.13;;;14.30;90.30;;;;;;5073330;28;20051;-74
2022/04/22 09:54:01;;;;;;;10.73;2.95;;;14.20;92.60;;;;;;5073251;28;20032;-75
2022/04/22 09:56:26;;;;;;;9.75;2.95;;;14.30;91.70;;;;;;5073299;28;20108;-75
2022/04/22 09:58:52;;;;;;;4.32;2.83;;;14.30;92.80;;;;;;5074429;28;20036;-73
2022/04/22 10:01:18;;;;;;;5.47;2.78;;;14.40;90.70;;;;;;5082369;28;20072;-73
2022/04/22 10:03:44;;;;;;;3.85;3.00;;;14.50;92.30;;;;;;5078091;28;20040;-74
2022/04/22 10:06:09;;;;;;;10.93;3.00;;;14.70;90.40;;;;;;5091032;28;20111;-73
2022/04/22 10:08:36;;;;;;;6.70;3.17;;;14.80;92.80;;;;;;5072771;28;20484;-74
2022/04/22 10:11:04;;;;;;;7.85;2.88;;;14.70;81.50;;;;;;5090572;28;20044;-73
2022/04/22 10:13:43;;;;;;;6.13;3.05;;;14.90;82.70;;;;;;5090744;28;20081;-73
2022/04/22 10:16:10;;;;;;;3.55;2.85;;;14.80;85.90;;;;;;5090779;28;20040;-74
2022/04/22 10:18:36;;;;;;;6.32;2.75;;;14.80;85.20;;;;;;5090795;28;20063;-74
2022/04/22 10:21:03;;;;;;;6.10;2.53;;;14.90;79.40;;;;;;5091022;28;20044;-73
2022/04/22 10:23:30;;;;;;;6.43;3.13;;;15.00;88.50;;;;;;5090847;28;20395;-75
2022/04/22 10:25:56;;;;;;;6.28;3.20;;;15.00;89.30;;;;;;5072630;28;20539;-74
2022/04/22 10:28:24;;;;;;;6.35;2.88;;;15.00;83.80;;;;;;5090783;28;20128;-74
2022/04/22 10:30:52;;;;;;;5.65;2.75;;;15.10;81.60;;;;;;5072745;28;20036;-74
2022/04/22 10:33:18;;;;;;;7.18;2.90;;;15.20;85.10;;;;;;5090796;28;20462;-73
2022/04/22 10:35:45;;;;;;;8.05;3.22;;;15.30;88.90;;;;;;5090605;28;20043;-74
2022/04/22 10:38:27;;;;;;;5.95;2.75;;;15.20;82.80;;;;;;5090571;28;20449;-73
2022/04/22 10:40:52;;;;;;;6.07;3.47;;;15.30;79.50;;;;;;5072558;28;20051;-73
2022/04/22 10:43:18;;;;;;;5.82;2.95;;;15.40;78.50;;;;;;5090712;28;20044;-73
2022/04/22 10:48:31;;;;;;;7.03;2.97;;;15.40;83.20;;;;;;5098610;28;20040;-73
2022/04/22 10:51:02;;;;;;;11.30;3.60;;;15.50;79.60;;;;;;5082943;28;20471;-73
2022/04/22 10:53:29;;;;;;;7.50;3.00;;;15.50;79.50;;;;;;5107009;28;20540;-72
2022/04/22 10:56:26;;;;;;;6.10;3.03;;;15.60;84.40;;;;;;5075725;28;20515;-70
2022/04/22 10:59:18;;;;;;;5.88;3.00;;;15.60;78.60;;;;;;5092338;28;20062;-74
2022/04/22 11:01:43;;;;;;;7.60;3.13;;;15.60;78.00;;;;;;5092841;28;20051;-74
2022/04/22 11:04:19;;;;;;;7.30;3.42;;;15.60;85.00;;;;;;5092565;28;20103;-74
2022/04/22 11:06:45;;;;;;;5.90;3.42;;;15.80;84.50;;;;;;5111072;28;20043;-74
2022/04/22 11:09:10;;;;;;;9.25;3.65;;;15.80;85.80;;;;;;5092246;28;20074;-75
2022/04/22 11:11:42;;;;;;;7.50;3.67;;;15.80;76.50;;;;;;5110586;28;20048;-74
2022/04/22 11:14:19;;;;;;;5.97;3.00;;;15.90;78.80;;;;;;5092330;28;20051;-73
2022/04/22 11:16:45;;;;;;;4.65;3.38;;;15.90;74.20;;;;;;5092529;28;20469;-74
2022/04/22 11:19:20;;;;;;;8.05;3.90;;;15.90;80.00;;;;;;5110478;28;20123;-74
2022/04/22 11:21:52;;;;;;;18.73;3.75;;;15.90;74.50;;;;;;5110890;28;20101;-74
2022/04/22 11:24:29;;;;;;;7.10;3.50;;;15.90;75.90;;;;;;5096148;28;20115;-74
2022/04/22 11:27:26;;;;;;;7.85;3.05;;;15.80;77.60;;;;;;5114280;28;20047;-74
2022/04/22 11:29:52;;;;;;;9.75;3.45;;;16.00;76.80;;;;;;5095176;28;20380;-74
2022/04/22 11:32:23;;;;;;;15.68;4.30;;;15.90;76.40;;;;;;5095925;28;20403;-74
2022/04/22 11:35:07;;;;;;;9.77;3.78;;;15.90;86.40;;;;;;5114324;28;20097;-74
2022/04/22 11:37:33;;;;;;;11.30;3.97;;;16.00;77.50;;;;;;5095998;28;20625;-76
2022/04/22 11:39:59;;;;;;;8.90;4.07;;;16.00;83.30;;;;;;5113910;28;20455;-75
2022/04/22 11:42:25;;;;;;;6.05;4.28;;;16.30;81.50;;;;;;5095739;28;20071;-74
2022/04/22 11:45:16;;;;;;;9.93;3.72;;;16.20;81.30;;;;;;5114349;28;20563;-74
2022/04/22 11:47:43;;;;;;;7.68;3.63;;;16.20;84.00;;;;;;5095762;28;20126;-74
2022/04/22 11:50:16;;;;;;;11.45;4.38;;;16.50;84.50;;;;;;5095627;28;20507;-74
2022/04/22 11:52:41;;;;;;;8.38;3.97;;;16.30;79.50;;;;;;5095528;28;20032;-75
2022/04/22 11:55:07;;;;;;;7.00;3.63;;;16.40;85.80;;;;;;5113758;28;20510;-73
2022/04/22 11:57:37;;;;;;;5.72;3.85;;;16.40;76.30;;;;;;5095838;28;20042;-74
2022/04/22 12:05:47;;;;;;;8.95;3.85;;;16.40;77.10;;;;;;5113841;28;19919;-74
2022/04/22 12:08:13;;;;;;;;;;;16.50;76.10;;;;;;5114028;28;20035;-73
2022/04/22 12:10:44;;;;;;;6.50;3.85;;;16.60;72.60;;;;;;5095133;28;19924;-73
2022/04/22 12:13:12;;;;;;;7.10;4.60;;;16.70;71.90;;;;;;5113685;28;20101;-73
2022/04/22 12:15:43;;;;;;;10.93;4.68;;;16.80;73.90;;;;;;5113341;28;20042;-74
2022/04/22 12:18:28;;;;;;;12.93;4.53;;;16.80;70.40;;;;;;5095525;28;20058;-74
2022/04/22 12:20:54;;;;;;;9.60;4.53;;;16.90;66.30;;;;;;5113465;28;20044;-74
2022/04/22 12:23:21;;;;;;;7.60;4.97;;;16.80;67.80;;;;;;5113345;28;20048;-73
2022/04/22 12:25:55;;;;;;;10.30;4.30;;;16.80;64.80;;;;;;5094887;28;20039;-75
2022/04/22 12:28:22;;;;;;;12.02;4.80;;;16.80;68.70;;;;;;5094742;28;20044;-73
2022/04/22 12:30:47;;;;;;;10.30;4.80;;;16.70;71.00;;;;;;5078090;28;20395;-73
2022/04/22 12:33:21;;;;;;;6.68;4.63;;;16.60;70.60;;;;;;5094491;28;20047;-74
2022/04/22 12:35:49;;;;;;;10.95;4.88;;;16.60;68.70;;;;;;5094769;28;20047;-74
2022/04/22 12:38:16;;;;;;;9.70;5.18;;;16.80;72.60;;;;;;5113020;28;20070;-73
2022/04/22 12:40:49;;;;;;;8.55;5.25;;;16.70;70.60;;;;;;5112784;28;20050;-74
2022/04/22 12:43:23;;;;;;;9.75;5.60;;;16.70;70.90;;;;;;5094786;28;20533;-73
2022/04/22 12:54:09;;;;;;;10.95;5.50;;;16.90;78.60;;;;;;5094329;28;20039;-73
2022/04/22 12:56:36;;;;;;;11.07;5.55;;;16.80;74.00;;;;;;5094324;28;20048;-75
2022/04/22 12:59:03;;;;;;;12.23;5.63;;;16.70;74.30;;;;;;5094179;28;20036;-73
2022/04/22 13:01:29;;;;;;;10.63;5.57;;;16.80;76.60;;;;;;5094474;28;20051;-73
2022/04/22 13:03:57;;;;;;;10.95;6.00;;;16.90;78.30;;;;;;5094479;28;20538;-75
2022/04/22 13:06:43;;;;;;;11.65;5.25;;;16.90;79.70;;;;;;5112507;28;20047;-73
2022/04/22 13:09:10;;;;;;;11.52;5.30;;;16.90;72.70;;;;;;5093946;28;20115;-74
2022/04/22 13:11:36;;;;;;;12.85;6.10;;;16.80;72.90;;;;;;5094099;28;20050;-74
2022/04/22 13:14:03;;;;;;;11.40;6.10;;;16.80;77.20;;;;;;5093993;28;20032;-75
2022/04/22 13:16:29;;;;;;;11.02;5.60;;;17.10;82.50;;;;;;5093786;28;20043;-74
2022/04/22 13:18:55;;;;;;;10.45;5.35;;;17.30;83.80;;;;;;5093630;28;20038;-74
2022/04/22 13:21:21;;;;;;;12.07;5.75;;;17.60;78.20;;;;;;5093854;28;20118;-74
2022/04/22 13:23:47;;;;;;;13.60;5.65;;;17.70;66.80;;;;;;5093700;28;20471;-74
2022/04/22 13:26:12;;;;;;;12.40;5.50;;;17.80;67.60;;;;;;5112319;28;20511;-74
2022/04/22 13:28:38;;;;;;;14.57;6.22;;;17.70;65.80;;;;;;5111852;28;20437;-74
2022/04/22 13:31:04;;;;;;;10.35;6.30;;;17.60;68.70;;;;;;5093741;28;20131;-74
2022/04/22 13:33:33;;;;;;;11.93;5.85;;;17.30;66.10;;;;;;5093841;28;20707;-73
2022/04/22 13:36:02;;;;;;;12.00;5.50;;;17.20;69.90;;;;;;5076807;28;20036;-74
2022/04/22 13:38:30;;;;;;;11.68;6.18;;;17.10;67.80;;;;;;5093341;28;20065;-75
2022/04/22 13:40:56;;;;;;;12.70;5.65;;;17.20;74.50;;;;;;5112035;28;20099;-73
2022/04/22 13:43:22;;;;;;;8.40;4.63;;;17.20;73.10;;;;;;5093538;28;20046;-73
2022/04/22 13:54:01;;;;;;;9.88;4.95;;;17.60;66.60;;;;;;5111670;28;20055;-74
2022/04/22 13:56:27;;;;;;;10.13;4.78;;;17.60;67.00;;;;;;5093678;28;20031;-74